createdAt,value
2018-03-08T00:04:38.550Z,991.94
2018-03-08T00:09:33.313Z,991.93
2018-03-08T00:14:32.902Z,991.97
2018-03-08T00:19:32.613Z,991.99
2018-03-08T00:24:27.771Z,992.00
2018-03-08T00:29:23.608Z,992.08
2018-03-08T00:34:20.230Z,992.18
2018-03-08T00:39:16.912Z,992.23
2018-03-08T00:44:16.287Z,992.26
2018-03-08T00:49:16.064Z,992.31
2018-03-08T00:54:10.665Z,992.37
2018-03-08T00:59:10.243Z,992.31
2018-03-08T01:04:05.323Z,992.36
2018-03-08T01:09:05.208Z,992.54
2018-03-08T01:14:00.244Z,992.44
2018-03-08T01:18:56.572Z,992.55
2018-03-08T01:23:55.945Z,992.59
2018-03-08T01:28:51.873Z,992.61
2018-03-08T01:33:47.336Z,992.77
2018-03-08T01:38:44.146Z,992.77
2018-03-08T01:43:39.636Z,992.81
2018-03-08T01:48:36.647Z,992.86
2018-03-08T01:53:32.547Z,992.90
2018-03-08T01:58:28.218Z,993.02
2018-03-08T02:03:23.976Z,992.96
2018-03-08T02:08:24.334Z,993.07
2018-03-08T02:13:19.149Z,993.08
2018-03-08T02:18:15.828Z,993.11
2018-03-08T02:23:12.309Z,993.16
2018-03-08T02:28:08.571Z,993.15
2018-03-08T02:33:04.316Z,993.25
2018-03-08T02:38:01.004Z,993.31
2018-03-08T02:42:57.494Z,993.27
2018-03-08T02:47:57.926Z,993.29
2018-03-08T02:52:57.453Z,993.28
2018-03-08T02:57:52.305Z,993.32
2018-03-08T03:02:49.041Z,993.43
2018-03-08T03:07:44.322Z,993.40
2018-03-08T03:12:45.619Z,993.53
2018-03-08T03:17:40.743Z,993.52
2018-03-08T03:22:36.804Z,993.55
2018-03-08T03:27:36.242Z,993.63
2018-03-08T03:32:36.393Z,993.60
2018-03-08T03:37:31.005Z,993.55
2018-03-08T03:42:30.524Z,993.59
2018-03-08T03:47:25.421Z,993.62
2018-03-08T03:52:22.180Z,993.68
2018-03-08T03:57:22.274Z,993.73
2018-03-08T04:02:22.161Z,993.73
2018-03-08T04:07:20.311Z,993.82
2018-03-08T04:12:15.108Z,993.84
2018-03-08T04:17:15.687Z,993.83
2018-03-08T04:22:10.394Z,993.82
2018-03-08T04:27:05.918Z,993.86
2018-03-08T04:32:03.089Z,993.90
2018-03-08T04:36:58.798Z,994.03
2018-03-08T04:41:59.180Z,993.92
2018-03-08T04:46:53.870Z,994.09
2018-03-08T04:51:49.613Z,994.12
2018-03-08T04:56:49.575Z,994.12
2018-03-08T05:01:46.274Z,994.15
2018-03-08T05:06:41.841Z,994.26
2018-03-08T05:11:37.673Z,994.27
2018-03-08T05:16:33.720Z,994.30
2018-03-08T05:21:33.897Z,994.26
2018-03-08T05:26:28.673Z,994.21
2018-03-08T05:31:24.326Z,994.28
2018-03-08T05:36:21.195Z,994.24
2018-03-08T05:41:16.517Z,994.25
2018-03-08T05:46:12.062Z,994.26
2018-03-08T05:51:08.260Z,994.38
2018-03-08T05:56:07.881Z,994.51
2018-03-08T06:01:07.405Z,994.52
2018-03-08T06:06:07.137Z,994.63
2018-03-08T06:11:06.785Z,994.65
2018-03-08T06:16:02.574Z,994.72
2018-03-08T06:20:58.835Z,994.77
2018-03-08T06:25:54.699Z,994.80
2018-03-08T06:30:50.442Z,994.91
2018-03-08T06:35:46.109Z,994.94
2018-03-08T06:40:42.006Z,994.98
2018-03-08T06:45:41.819Z,994.82
2018-03-08T06:50:41.077Z,994.90
2018-03-08T06:55:36.043Z,994.90
2018-03-08T07:00:32.601Z,994.96
2018-03-08T07:05:28.068Z,995.00
2018-03-08T07:10:24.096Z,995.02
2018-03-08T07:15:20.668Z,995.10
2018-03-08T07:20:16.537Z,995.10
2018-03-08T07:25:16.388Z,995.14
2018-03-08T07:30:12.418Z,995.07
2018-03-08T07:35:08.174Z,995.04
2018-03-08T07:40:05.008Z,995.07
2018-03-08T07:45:00.664Z,995.00
2018-03-08T07:50:00.596Z,995.01
2018-03-08T07:54:56.172Z,994.96
2018-03-08T07:59:56.951Z,994.98
2018-03-08T08:04:55.809Z,994.96
2018-03-08T08:09:55.864Z,994.98
2018-03-08T08:14:50.850Z,994.83
2018-03-08T08:19:50.162Z,994.78
2018-03-08T08:24:45.166Z,994.79
2018-03-08T08:29:45.743Z,994.73
2018-03-08T08:34:45.233Z,994.82
2018-03-08T08:39:41.139Z,994.79
2018-03-08T08:44:38.264Z,994.76
2018-03-08T08:49:33.838Z,994.67
2018-03-08T08:54:30.925Z,994.65
2018-03-08T08:59:27.010Z,994.70
2018-03-08T09:04:26.408Z,994.62
2018-03-08T09:09:22.303Z,994.42
2018-03-08T09:14:21.925Z,994.62
2018-03-08T09:19:18.937Z,994.46
2018-03-08T09:24:19.202Z,994.44
2018-03-08T09:29:14.876Z,994.26
2018-03-08T09:34:10.924Z,994.04
2018-03-08T09:39:07.129Z,994.20
2018-03-08T09:44:07.193Z,994.19
2018-03-08T09:49:07.129Z,994.15
2018-03-08T09:54:03.279Z,994.01
2018-03-08T09:59:03.915Z,993.90
2018-03-08T10:04:00.231Z,993.97
2018-03-08T10:08:56.122Z,993.89
2018-03-08T10:13:52.101Z,993.84
2018-03-08T10:18:47.942Z,993.76
2018-03-08T10:23:43.232Z,993.69
2018-03-08T10:28:38.741Z,993.78
2018-03-08T10:33:40.838Z,993.64
2018-03-08T10:38:36.430Z,993.63
2018-03-08T10:43:32.577Z,993.48
2018-03-08T10:48:27.990Z,993.53
2018-03-08T10:53:27.496Z,993.40
2018-03-08T10:58:23.431Z,993.48
2018-03-08T11:03:18.842Z,993.51
2018-03-08T11:08:18.749Z,993.47
2018-03-08T11:13:13.904Z,993.50
2018-03-08T11:18:14.494Z,993.41
2018-03-08T11:23:09.307Z,993.39
2018-03-08T11:28:05.007Z,993.41
2018-03-08T11:33:01.799Z,993.44
2018-03-08T11:37:57.426Z,993.28
2018-03-08T11:42:55.301Z,993.18
2018-03-08T11:47:55.728Z,993.05
2018-03-08T11:52:54.364Z,992.93
2018-03-08T11:57:53.520Z,992.89
2018-03-08T12:02:49.616Z,992.84
2018-03-08T12:07:46.037Z,992.75
2018-03-08T12:12:42.826Z,992.63
2018-03-08T12:17:38.417Z,992.64
2018-03-08T12:22:34.572Z,992.53
2018-03-08T12:27:30.338Z,992.52
2018-03-08T12:32:30.655Z,992.48
2018-03-08T12:37:28.960Z,992.37
2018-03-08T12:42:24.201Z,992.30
2018-03-08T12:47:20.129Z,992.23
2018-03-08T12:52:19.767Z,992.14
2018-03-08T12:57:19.749Z,991.96
2018-03-08T13:02:14.697Z,991.94
2018-03-08T13:07:14.632Z,991.95
2018-03-08T13:12:10.792Z,991.78
2018-03-08T13:17:07.130Z,991.81
2018-03-08T13:22:06.383Z,991.89
2018-03-08T13:27:01.098Z,991.92
2018-03-08T13:31:58.490Z,991.93
2018-03-08T13:36:54.819Z,991.93
2018-03-08T13:41:52.977Z,991.99
2018-03-08T13:46:51.987Z,992.02
2018-03-08T13:51:46.711Z,992.04
2018-03-08T13:56:42.521Z,991.79
2018-03-08T14:01:38.308Z,991.92
2018-03-08T14:06:34.446Z,991.83
2018-03-08T14:11:34.022Z,991.77
2018-03-08T14:16:28.732Z,991.77
2018-03-08T14:21:24.772Z,991.72
2018-03-08T14:26:24.517Z,991.73
2018-03-08T14:31:23.120Z,991.70
2018-03-08T14:36:18.545Z,991.70
2018-03-08T14:41:13.888Z,991.79
2018-03-08T14:46:10.780Z,991.75
2018-03-08T14:51:06.145Z,991.71
2018-03-08T14:56:03.675Z,991.85
2018-03-08T15:01:00.014Z,991.70
2018-03-08T15:06:00.278Z,991.59
2018-03-08T15:11:04.714Z,991.47
2018-03-08T15:16:02.190Z,991.60
2018-03-08T15:21:00.897Z,991.56
2018-03-08T15:25:59.833Z,991.53
2018-03-08T15:30:54.787Z,991.50
2018-03-08T15:35:53.905Z,991.16
2018-03-08T15:40:49.840Z,991.24
2018-03-08T15:45:45.430Z,991.16
2018-03-08T15:50:41.343Z,991.11
2018-03-08T15:55:37.943Z,991.08
2018-03-08T16:00:33.491Z,991.08
2018-03-08T16:05:29.238Z,990.89
2018-03-08T16:10:24.912Z,990.92
2018-03-08T16:15:24.528Z,991.00
2018-03-08T16:20:20.038Z,990.98
2018-03-08T16:25:15.574Z,991.34
2018-03-08T16:30:11.329Z,991.76
2018-03-08T16:35:06.770Z,991.98
2018-03-08T16:40:02.036Z,992.20
2018-03-08T16:44:57.908Z,991.61
2018-03-08T16:49:59.753Z,991.51
2018-03-08T16:54:55.241Z,991.47
2018-03-08T16:59:50.509Z,991.42
2018-03-08T17:04:46.569Z,991.45
2018-03-08T17:09:42.785Z,991.47
2018-03-08T17:14:42.009Z,991.52
2018-03-08T17:19:41.237Z,991.55
2018-03-08T17:24:36.154Z,991.51
2018-03-08T17:29:35.579Z,991.60
2018-03-08T17:34:31.323Z,991.67
2018-03-08T17:39:28.405Z,991.64
2018-03-08T17:44:28.781Z,991.61
2018-03-08T17:49:23.327Z,991.81
2018-03-08T17:54:19.013Z,991.78
2018-03-08T17:59:18.512Z,991.75
2018-03-08T18:04:17.272Z,991.74
2018-03-08T18:09:13.131Z,991.82
2018-03-08T18:14:08.688Z,992.00
2018-03-08T18:19:04.329Z,992.05
2018-03-08T18:24:01.600Z,992.30
2018-03-08T18:28:57.287Z,992.35
2018-03-08T18:33:57.254Z,992.65
2018-03-08T18:38:56.099Z,992.50
2018-03-08T18:43:50.940Z,992.53
2018-03-08T18:48:46.360Z,992.53
2018-03-08T18:53:46.920Z,992.31
2018-03-08T18:58:41.339Z,992.37
2018-03-08T19:03:38.732Z,992.41
2018-03-08T19:08:35.310Z,992.53
2018-03-08T19:13:30.791Z,992.58
2018-03-08T19:18:26.873Z,992.59
2018-03-08T19:23:26.397Z,992.80
2018-03-08T19:28:21.716Z,992.83
2018-03-08T19:33:21.142Z,992.97
2018-03-08T19:38:17.078Z,992.91
2018-03-08T19:43:16.292Z,993.20
2018-03-08T19:48:14.887Z,993.26
2018-03-08T19:53:09.606Z,993.34
2018-03-08T19:58:06.503Z,993.45
2018-03-08T20:03:05.660Z,993.55
2018-03-08T20:08:00.469Z,993.59
2018-03-08T20:13:00.389Z,993.67
2018-03-08T20:17:56.130Z,993.69
2018-03-08T20:22:51.551Z,993.87
2018-03-08T20:27:47.429Z,993.90
2018-03-08T20:32:46.957Z,993.92
2018-03-08T20:37:43.043Z,993.87
2018-03-08T20:42:38.453Z,993.92
2018-03-08T20:47:34.786Z,994.04
2018-03-08T20:52:35.077Z,994.03
2018-03-08T20:57:29.625Z,994.07
2018-03-08T21:02:25.210Z,994.11
2018-03-08T21:07:20.942Z,994.11
2018-03-08T21:12:16.652Z,994.27
2018-03-08T21:17:13.290Z,994.20
2018-03-08T21:22:09.579Z,994.29
2018-03-08T21:27:10.089Z,994.34
2018-03-08T21:32:10.269Z,994.41
2018-03-08T21:37:04.522Z,994.60
2018-03-08T21:42:04.057Z,994.68
2018-03-08T21:47:02.359Z,994.71
2018-03-08T21:51:58.159Z,994.76
2018-03-08T21:56:59.214Z,994.81
2018-03-08T22:01:54.905Z,994.80
2018-03-08T22:06:50.186Z,994.97
2018-03-08T22:11:49.915Z,995.06
2018-03-08T22:16:48.651Z,995.01
2018-03-08T22:21:48.500Z,994.95
2018-03-08T22:26:44.552Z,995.06
2018-03-08T22:31:43.794Z,995.09
2018-03-08T22:36:39.346Z,995.11
2018-03-08T22:41:39.883Z,995.09
2018-03-08T22:46:34.892Z,995.26
2018-03-08T22:51:31.271Z,995.23
2018-03-08T22:56:27.706Z,995.28
2018-03-08T23:01:23.668Z,995.33
2018-03-08T23:06:19.493Z,995.53
2018-03-08T23:11:15.914Z,995.51
2018-03-08T23:16:16.634Z,995.53
2018-03-08T23:21:12.217Z,995.49
2018-03-08T23:26:11.633Z,995.57
2018-03-08T23:31:11.434Z,995.66
2018-03-08T23:36:06.131Z,995.72
2018-03-08T23:41:02.885Z,995.88
2018-03-08T23:45:59.946Z,995.93
2018-03-08T23:50:55.123Z,996.02
2018-03-08T23:55:51.802Z,996.02
